createdAt,value
2017-12-04T00:00:09.339Z,929.79
2017-12-04T00:00:37.455Z,929.82
2017-12-04T00:01:05.645Z,929.79
2017-12-04T00:01:33.796Z,929.84
2017-12-04T00:02:01.864Z,929.85
2017-12-04T00:02:29.898Z,929.84
2017-12-04T00:02:57.946Z,929.86
2017-12-04T00:03:26.008Z,929.9
2017-12-04T00:03:54.081Z,929.92
2017-12-04T00:04:22.201Z,929.94
2017-12-04T00:04:50.237Z,929.97
2017-12-04T00:05:18.198Z,929.97
2017-12-04T00:05:46.221Z,929.99
2017-12-04T00:06:14.483Z,929.95
2017-12-04T00:06:42.553Z,929.98
2017-12-04T00:07:10.685Z,929.96
2017-12-04T00:07:38.844Z,929.98
2017-12-04T00:08:06.982Z,929.97
2017-12-04T00:08:35.154Z,929.99
2017-12-04T00:09:03.076Z,929.98
2017-12-04T00:09:31.137Z,930
2017-12-04T00:09:59.289Z,930.01
2017-12-04T00:10:27.346Z,929.97
2017-12-04T00:10:55.479Z,929.99
2017-12-04T00:11:23.538Z,929.98
2017-12-04T00:11:51.690Z,929.98
2017-12-04T00:12:19.799Z,930.01
2017-12-04T00:12:47.629Z,930.01
2017-12-04T00:13:15.767Z,930
2017-12-04T00:13:43.821Z,930.01
2017-12-04T00:14:12.616Z,930.05
2017-12-04T00:14:40.752Z,929.99
2017-12-04T00:15:08.862Z,930.03
2017-12-04T00:15:37.014Z,930.03
2017-12-04T00:16:05.168Z,930.06
2017-12-04T00:16:33.221Z,929.99
2017-12-04T00:17:01.367Z,930.01
2017-12-04T00:17:29.445Z,930.05
2017-12-04T00:17:57.476Z,930.02
2017-12-04T00:18:25.634Z,930.01
2017-12-04T00:18:53.762Z,930.01
2017-12-04T00:19:21.718Z,930.03
2017-12-04T00:19:49.850Z,930
2017-12-04T00:20:17.994Z,929.99
2017-12-04T00:20:46.107Z,930.06
2017-12-04T00:21:14.338Z,930.04
2017-12-04T00:21:42.500Z,930.05
2017-12-04T00:22:10.662Z,930.1
2017-12-04T00:22:38.809Z,930.06
2017-12-04T00:23:06.946Z,930.08
2017-12-04T00:23:35.036Z,930.04
2017-12-04T00:24:03.152Z,930
2017-12-04T00:24:31.277Z,930.04
2017-12-04T00:24:59.416Z,930.06
2017-12-04T00:25:27.482Z,930.02
2017-12-04T00:25:55.618Z,930
2017-12-04T00:26:23.689Z,929.99
2017-12-04T00:26:51.781Z,929.96
2017-12-04T00:27:19.933Z,930.02
2017-12-04T00:27:48.093Z,930.04
2017-12-04T00:28:16.236Z,930.05
2017-12-04T00:28:44.371Z,930.08
2017-12-04T00:29:12.414Z,930.08
2017-12-04T00:29:40.476Z,930.07
2017-12-04T00:30:08.517Z,930.14
2017-12-04T00:30:36.587Z,930.11
2017-12-04T00:31:04.733Z,930.16
2017-12-04T00:31:32.774Z,930.17
2017-12-04T00:32:00.921Z,930.19
2017-12-04T00:32:28.965Z,930.23
2017-12-04T00:32:57.104Z,930.25
2017-12-04T00:33:25.172Z,930.2
2017-12-04T00:33:53.333Z,930.21
2017-12-04T00:34:21.471Z,930.25
2017-12-04T00:34:49.423Z,930.26
2017-12-04T00:35:17.360Z,930.21
2017-12-04T00:35:45.494Z,930.23
2017-12-04T00:36:13.552Z,930.24
2017-12-04T00:36:41.802Z,930.23
2017-12-04T00:37:09.813Z,930.23
2017-12-04T00:37:37.958Z,930.23
2017-12-04T00:38:06.092Z,930.24
2017-12-04T00:38:34.259Z,930.22
2017-12-04T00:39:02.312Z,930.23
2017-12-04T00:39:30.478Z,930.24
2017-12-04T00:39:58.534Z,930.16
2017-12-04T00:40:26.674Z,930.22
2017-12-04T00:40:54.684Z,930.21
2017-12-04T00:41:22.607Z,930.2
2017-12-04T00:41:50.665Z,930.21
2017-12-04T00:42:18.736Z,930.21
2017-12-04T00:42:46.642Z,930.2
2017-12-04T00:43:14.807Z,930.24
2017-12-04T00:43:42.971Z,930.22
2017-12-04T00:44:11.156Z,930.19
2017-12-04T00:44:39.205Z,930.21
2017-12-04T00:45:07.354Z,930.21
2017-12-04T00:45:35.281Z,930.19
2017-12-04T00:46:03.323Z,930.24
2017-12-04T00:46:31.277Z,930.25
2017-12-04T00:46:59.406Z,930.27
2017-12-04T00:47:27.462Z,930.26
2017-12-04T00:47:55.594Z,930.26
2017-12-04T00:48:23.647Z,930.29
2017-12-04T00:48:51.566Z,930.29
2017-12-04T00:49:19.640Z,930.28
2017-12-04T00:49:47.789Z,930.29
2017-12-04T00:50:15.973Z,930.33
2017-12-04T00:50:44.021Z,930.35
2017-12-04T00:51:12.171Z,930.42
2017-12-04T00:51:40.299Z,930.43
2017-12-04T00:52:08.329Z,930.43
2017-12-04T00:52:36.497Z,930.45
2017-12-04T00:53:04.626Z,930.5
2017-12-04T00:53:32.737Z,930.48
2017-12-04T00:54:00.861Z,930.52
2017-12-04T00:54:28.923Z,930.51
2017-12-04T00:54:57.094Z,930.55
2017-12-04T00:55:25.273Z,930.51
2017-12-04T00:55:53.430Z,930.5
2017-12-04T00:56:21.568Z,930.59
2017-12-04T00:56:49.683Z,930.52
2017-12-04T00:57:17.757Z,930.52
2017-12-04T00:57:45.910Z,930.57
2017-12-04T00:58:14.058Z,930.55
2017-12-04T00:58:42.102Z,930.62
2017-12-04T00:59:10.246Z,930.59
2017-12-04T00:59:38.406Z,930.56
2017-12-04T01:00:06.454Z,930.57
2017-12-04T01:00:34.393Z,930.55
2017-12-04T01:01:02.529Z,930.59
2017-12-04T01:01:30.598Z,930.56
2017-12-04T01:01:58.676Z,930.61
2017-12-04T01:02:26.723Z,930.61
2017-12-04T01:02:54.781Z,930.61
2017-12-04T01:03:22.956Z,930.6
2017-12-04T01:03:50.926Z,930.56
2017-12-04T01:04:18.956Z,930.65
2017-12-04T01:04:46.958Z,930.63
2017-12-04T01:05:15.010Z,930.6
2017-12-04T01:05:43.076Z,930.61
2017-12-04T01:06:11.241Z,930.64
2017-12-04T01:06:39.360Z,930.61
2017-12-04T01:07:07.519Z,930.67
2017-12-04T01:07:35.562Z,930.67
2017-12-04T01:08:03.717Z,930.67
2017-12-04T01:08:31.880Z,930.71
2017-12-04T01:09:00.017Z,930.7
2017-12-04T01:09:28.155Z,930.74
2017-12-04T01:09:56.294Z,930.78
2017-12-04T01:10:24.240Z,930.8
2017-12-04T01:10:52.358Z,930.78
2017-12-04T01:11:20.481Z,930.84
2017-12-04T01:11:48.725Z,930.81
2017-12-04T01:12:16.862Z,930.84
2017-12-04T01:12:44.938Z,930.87
2017-12-04T01:13:13.089Z,930.87
2017-12-04T01:13:41.160Z,930.89
2017-12-04T01:14:09.309Z,930.86
2017-12-04T01:14:37.249Z,930.86
2017-12-04T01:15:05.406Z,930.87
2017-12-04T01:15:33.456Z,930.86
2017-12-04T01:16:01.519Z,930.84
2017-12-04T01:16:29.624Z,930.83
2017-12-04T01:16:57.783Z,930.85
2017-12-04T01:17:26.023Z,930.85
2017-12-04T01:17:54.044Z,930.81
2017-12-04T01:18:22.087Z,930.83
2017-12-04T01:18:50.212Z,930.79
2017-12-04T01:19:18.353Z,930.79
2017-12-04T01:19:46.505Z,930.8
2017-12-04T01:20:14.658Z,930.72
2017-12-04T01:20:42.840Z,930.75
2017-12-04T01:21:10.881Z,930.74
2017-12-04T01:21:39.011Z,930.72
2017-12-04T01:22:07.252Z,930.7
2017-12-04T01:22:35.401Z,930.7
2017-12-04T01:23:03.439Z,930.67
2017-12-04T01:23:31.475Z,930.64
2017-12-04T01:23:59.523Z,930.68
2017-12-04T01:24:27.688Z,930.7
2017-12-04T01:24:55.818Z,930.69
2017-12-04T01:25:23.751Z,930.74
2017-12-04T01:25:51.788Z,930.7
2017-12-04T01:26:19.824Z,930.73
2017-12-04T01:26:47.855Z,930.73
2017-12-04T01:27:16.012Z,930.78
2017-12-04T01:27:44.049Z,930.76
2017-12-04T01:28:12.096Z,930.72
2017-12-04T01:28:40.242Z,930.76
2017-12-04T01:29:08.386Z,930.7
2017-12-04T01:29:36.457Z,930.7
2017-12-04T01:30:04.489Z,930.75
2017-12-04T01:30:32.570Z,930.7
2017-12-04T01:31:00.621Z,930.72
2017-12-04T01:31:28.661Z,930.66
2017-12-04T01:31:56.807Z,930.69
2017-12-04T01:32:24.954Z,930.71
2017-12-04T01:32:53.105Z,930.71
2017-12-04T01:33:20.952Z,930.69
2017-12-04T01:33:49.075Z,930.68
2017-12-04T01:34:17.210Z,930.68
2017-12-04T01:34:45.368Z,930.67
2017-12-04T01:35:13.315Z,930.64
2017-12-04T01:35:41.473Z,930.64
2017-12-04T01:36:09.606Z,930.64
2017-12-04T01:36:37.577Z,930.6
2017-12-04T01:37:05.753Z,930.63
2017-12-04T01:37:33.932Z,930.66
2017-12-04T01:38:02.075Z,930.64
2017-12-04T01:38:30.226Z,930.65
2017-12-04T01:38:58.384Z,930.63
2017-12-04T01:39:26.528Z,930.68
2017-12-04T01:39:54.704Z,930.7
2017-12-04T01:40:22.844Z,930.74
2017-12-04T01:40:50.994Z,930.75
2017-12-04T01:41:19.179Z,930.75
2017-12-04T01:41:47.306Z,930.8
2017-12-04T01:42:15.455Z,930.81
2017-12-04T01:42:43.587Z,930.81
2017-12-04T01:43:11.799Z,930.78
2017-12-04T01:43:39.812Z,930.82
2017-12-04T01:44:07.836Z,930.84
2017-12-04T01:44:35.879Z,930.8
2017-12-04T01:45:04.059Z,930.82
2017-12-04T01:45:32.149Z,930.83
2017-12-04T01:46:00.229Z,930.82
2017-12-04T01:46:28.348Z,930.79
2017-12-04T01:46:56.385Z,930.8
2017-12-04T01:47:24.543Z,930.8
2017-12-04T01:47:52.601Z,930.78
2017-12-04T01:48:20.757Z,930.77
2017-12-04T01:48:48.882Z,930.79
2017-12-04T01:49:17.009Z,930.8
2017-12-04T01:49:45.078Z,930.79
2017-12-04T01:50:13.154Z,930.81
2017-12-04T01:50:41.096Z,930.82
2017-12-04T01:51:09.114Z,930.82
2017-12-04T01:51:37.155Z,930.85
2017-12-04T01:52:05.282Z,930.87
2017-12-04T01:52:33.530Z,930.86
2017-12-04T01:53:01.557Z,930.89
2017-12-04T01:53:29.595Z,930.9
2017-12-04T01:53:57.636Z,930.91
2017-12-04T01:54:25.880Z,930.91
2017-12-04T01:54:53.991Z,930.94
2017-12-04T01:55:22.059Z,930.93
2017-12-04T01:55:50.089Z,930.95
2017-12-04T01:56:18.260Z,930.97
2017-12-04T01:56:46.406Z,930.95
2017-12-04T01:57:14.550Z,930.99
2017-12-04T01:57:42.811Z,930.98
2017-12-04T01:58:10.881Z,931.02
2017-12-04T01:58:39.034Z,931.03
2017-12-04T01:59:07.183Z,931.07
2017-12-04T01:59:35.339Z,931.07
2017-12-04T02:00:03.504Z,931.08
2017-12-04T02:00:31.597Z,931.06
2017-12-04T02:00:59.643Z,931.08
2017-12-04T02:01:27.769Z,931.01
2017-12-04T02:01:55.870Z,931.04
2017-12-04T02:02:23.917Z,931
2017-12-04T02:02:52.071Z,931
2017-12-04T02:03:20.107Z,930.97
2017-12-04T02:03:48.160Z,931.01
2017-12-04T02:04:16.291Z,930.96
2017-12-04T02:04:44.332Z,930.94
2017-12-04T02:05:12.260Z,930.99
2017-12-04T02:05:40.427Z,930.94
2017-12-04T02:06:08.610Z,930.92
2017-12-04T02:06:36.782Z,930.94
2017-12-04T02:07:04.862Z,930.94
2017-12-04T02:07:33.013Z,930.95
2017-12-04T02:08:01.153Z,930.94
2017-12-04T02:08:29.221Z,930.96
2017-12-04T02:08:57.266Z,930.95
2017-12-04T02:09:25.404Z,930.94
2017-12-04T02:09:53.532Z,930.93
2017-12-04T02:10:21.562Z,930.95
2017-12-04T02:10:49.604Z,930.97
2017-12-04T02:11:17.655Z,930.95
2017-12-04T02:11:45.792Z,930.89
2017-12-04T02:12:13.926Z,930.88
2017-12-04T02:12:42.102Z,930.88
2017-12-04T02:13:10.264Z,930.82
2017-12-04T02:13:38.381Z,930.83
2017-12-04T02:14:06.417Z,930.83
2017-12-04T02:14:34.600Z,930.81
2017-12-04T02:15:02.544Z,930.81
2017-12-04T02:15:30.661Z,930.83
2017-12-04T02:15:58.796Z,930.82
2017-12-04T02:16:26.948Z,930.83
2017-12-04T02:16:54.989Z,930.85
2017-12-04T02:17:23.077Z,930.85
2017-12-04T02:17:51.090Z,930.83
2017-12-04T02:18:19.242Z,930.88
2017-12-04T02:18:47.274Z,930.85
2017-12-04T02:19:15.220Z,930.94
2017-12-04T02:19:43.184Z,930.89
2017-12-04T02:20:11.366Z,930.91
2017-12-04T02:20:39.429Z,930.92
2017-12-04T02:21:07.580Z,930.92
2017-12-04T02:21:35.616Z,930.91
2017-12-04T02:22:03.665Z,930.92
2017-12-04T02:22:31.782Z,930.94
2017-12-04T02:23:00.009Z,930.9
2017-12-04T02:23:28.141Z,930.93
2017-12-04T02:23:56.302Z,930.89
2017-12-04T02:24:24.425Z,930.93
2017-12-04T02:24:52.582Z,930.89
2017-12-04T02:25:20.746Z,930.93
2017-12-04T02:25:48.722Z,930.93
2017-12-04T02:26:16.851Z,930.96
2017-12-04T02:26:44.997Z,930.93
2017-12-04T02:27:13.064Z,930.95
2017-12-04T02:27:41.308Z,930.96
2017-12-04T02:28:09.458Z,930.97
2017-12-04T02:28:37.525Z,930.99
2017-12-04T02:29:05.672Z,931
2017-12-04T02:29:33.814Z,931
2017-12-04T02:30:01.960Z,930.99
2017-12-04T02:30:30.043Z,931
2017-12-04T02:30:58.183Z,930.94
2017-12-04T02:31:26.313Z,930.95
2017-12-04T02:31:54.482Z,930.96
2017-12-04T02:32:22.542Z,930.93
2017-12-04T02:32:50.735Z,930.95
2017-12-04T02:33:18.794Z,930.93
2017-12-04T02:33:46.923Z,930.91
2017-12-04T02:34:14.968Z,930.91
2017-12-04T02:34:43.027Z,930.93
2017-12-04T02:35:11.185Z,930.88
2017-12-04T02:35:39.324Z,930.86
2017-12-04T02:36:07.399Z,930.89
2017-12-04T02:36:35.433Z,930.91
2017-12-04T02:37:03.571Z,930.9
2017-12-04T02:37:31.711Z,930.89
2017-12-04T02:37:59.968Z,930.91
2017-12-04T02:38:28.120Z,930.9
2017-12-04T02:38:56.238Z,930.9
2017-12-04T02:39:24.320Z,930.88
2017-12-04T02:39:52.451Z,930.91
2017-12-04T02:40:20.509Z,930.86
2017-12-04T02:40:48.576Z,930.87
2017-12-04T02:41:16.641Z,930.89
2017-12-04T02:41:44.792Z,930.88
2017-12-04T02:42:12.852Z,930.87
2017-12-04T02:42:40.960Z,930.88
2017-12-04T02:43:08.976Z,930.87
2017-12-04T02:43:37.141Z,930.91
2017-12-04T02:44:05.295Z,930.85
2017-12-04T02:44:33.443Z,930.84
2017-12-04T02:45:01.603Z,930.85
2017-12-04T02:45:29.561Z,930.79
2017-12-04T02:45:57.583Z,930.79
2017-12-04T02:46:25.728Z,930.79
2017-12-04T02:46:53.789Z,930.77
2017-12-04T02:47:21.946Z,930.74
2017-12-04T02:47:49.976Z,930.78
2017-12-04T02:48:18.113Z,930.74
2017-12-04T02:48:46.195Z,930.74
2017-12-04T02:49:14.344Z,930.76
2017-12-04T02:49:42.636Z,930.71
2017-12-04T02:50:10.786Z,930.73
2017-12-04T02:50:38.905Z,930.7
2017-12-04T02:51:07.072Z,930.7
2017-12-04T02:51:35.117Z,930.71
2017-12-04T02:52:03.276Z,930.7
2017-12-04T02:52:31.434Z,930.7
2017-12-04T02:52:59.710Z,930.69
2017-12-04T02:53:27.754Z,930.68
2017-12-04T02:53:55.919Z,930.68
2017-12-04T02:54:23.998Z,930.69
2017-12-04T02:54:52.145Z,930.68
2017-12-04T02:55:20.194Z,930.68
2017-12-04T02:55:48.333Z,930.69
2017-12-04T02:56:16.508Z,930.64
2017-12-04T02:56:44.658Z,930.66
2017-12-04T02:57:12.785Z,930.67
2017-12-04T02:57:40.948Z,930.65
2017-12-04T02:58:09.112Z,930.65
2017-12-04T02:58:37.241Z,930.67
2017-12-04T02:59:05.395Z,930.68
2017-12-04T02:59:33.457Z,930.66
2017-12-04T03:00:01.598Z,930.66
2017-12-04T03:00:29.764Z,930.68
2017-12-04T03:00:57.853Z,930.69
2017-12-04T03:01:26.003Z,930.62
2017-12-04T03:01:54.151Z,930.6
2017-12-04T03:02:22.278Z,930.62
2017-12-04T03:02:50.323Z,930.59
2017-12-04T03:03:18.390Z,930.62
2017-12-04T03:03:46.436Z,930.55
2017-12-04T03:04:14.506Z,930.57
2017-12-04T03:04:42.657Z,930.59
2017-12-04T03:05:10.719Z,930.57
2017-12-04T03:05:38.862Z,930.55
2017-12-04T03:06:07.009Z,930.56
2017-12-04T03:06:35.084Z,930.53
2017-12-04T03:07:03.205Z,930.54
2017-12-04T03:07:31.377Z,930.55
2017-12-04T03:07:59.491Z,930.54
2017-12-04T03:08:27.711Z,930.48
2017-12-04T03:08:55.748Z,930.5
2017-12-04T03:09:23.792Z,930.51
2017-12-04T03:09:51.943Z,930.47
2017-12-04T03:10:20.125Z,930.49
2017-12-04T03:10:48.274Z,930.49
2017-12-04T03:11:16.447Z,930.48
2017-12-04T03:11:44.575Z,930.47
2017-12-04T03:12:12.533Z,930.43
2017-12-04T03:12:40.875Z,930.47
2017-12-04T03:13:08.908Z,930.43
2017-12-04T03:13:37.048Z,930.45
2017-12-04T03:14:05.200Z,930.47
2017-12-04T03:14:33.356Z,930.44
2017-12-04T03:15:01.510Z,930.43
2017-12-04T03:15:29.697Z,930.42
2017-12-04T03:15:57.722Z,930.4
2017-12-04T03:16:25.663Z,930.43
2017-12-04T03:16:53.700Z,930.4
2017-12-04T03:17:21.846Z,930.37
2017-12-04T03:17:49.993Z,930.35
2017-12-04T03:18:17.929Z,930.39
2017-12-04T03:18:46.077Z,930.38
2017-12-04T03:19:14.235Z,930.34
2017-12-04T03:19:42.287Z,930.32
2017-12-04T03:20:10.373Z,930.29
2017-12-04T03:20:38.537Z,930.31
2017-12-04T03:21:06.594Z,930.28
2017-12-04T03:21:34.731Z,930.24
2017-12-04T03:22:02.892Z,930.22
2017-12-04T03:22:31.036Z,930.21
2017-12-04T03:22:59.058Z,930.24
2017-12-04T03:23:27.217Z,930.21
2017-12-04T03:23:55.354Z,930.21
2017-12-04T03:24:23.470Z,930.16
2017-12-04T03:24:51.635Z,930.14
2017-12-04T03:25:19.688Z,930.14
2017-12-04T03:25:47.868Z,930.14
2017-12-04T03:26:15.950Z,930.13
2017-12-04T03:26:43.979Z,930.15
2017-12-04T03:27:12.002Z,930.15
2017-12-04T03:27:40.154Z,930.17
2017-12-04T03:28:08.270Z,930.15
2017-12-04T03:28:36.211Z,930.16
2017-12-04T03:29:04.251Z,930.17
2017-12-04T03:29:32.379Z,930.16
2017-12-04T03:30:00.444Z,930.2
2017-12-04T03:30:28.616Z,930.19
2017-12-04T03:30:56.787Z,930.16
2017-12-04T03:31:24.810Z,930.2
2017-12-04T03:31:52.890Z,930.19
2017-12-04T03:32:21.039Z,930.18
2017-12-04T03:32:49.190Z,930.19
2017-12-04T03:33:17.249Z,930.15
2017-12-04T03:33:45.393Z,930.12
2017-12-04T03:34:13.333Z,930.17
2017-12-04T03:34:41.320Z,930.11
2017-12-04T03:35:09.466Z,930.12
2017-12-04T03:35:37.605Z,930.1
2017-12-04T03:36:05.753Z,930.1
2017-12-04T03:36:33.921Z,930.08
2017-12-04T03:37:01.968Z,930.1
2017-12-04T03:37:30.106Z,930.07
2017-12-04T03:37:58.256Z,930.07
2017-12-04T03:38:26.321Z,930.03
2017-12-04T03:38:54.460Z,930.02
2017-12-04T03:39:22.504Z,930.01
2017-12-04T03:39:50.568Z,929.98
2017-12-04T03:40:18.641Z,930
2017-12-04T03:40:46.790Z,929.99
2017-12-04T03:41:14.952Z,929.95
2017-12-04T03:41:43.103Z,929.92
2017-12-04T03:42:11.154Z,929.88
2017-12-04T03:42:39.181Z,929.85
2017-12-04T03:43:07.328Z,929.88
2017-12-04T03:43:35.467Z,929.83
2017-12-04T03:44:03.615Z,929.84
2017-12-04T03:44:31.874Z,929.82
2017-12-04T03:45:00.040Z,929.79
2017-12-04T03:45:28.150Z,929.8
2017-12-04T03:45:56.188Z,929.82
2017-12-04T03:46:24.096Z,929.81
2017-12-04T03:46:52.247Z,929.8
2017-12-04T03:47:20.234Z,929.79
2017-12-04T03:47:48.368Z,929.76
2017-12-04T03:48:16.431Z,929.8
2017-12-04T03:48:44.471Z,929.78
2017-12-04T03:49:12.500Z,929.77
2017-12-04T03:49:40.684Z,929.76
2017-12-04T03:50:08.830Z,929.75
2017-12-04T03:50:36.858Z,929.74
2017-12-04T03:51:04.996Z,929.76
2017-12-04T03:51:33.155Z,929.77
2017-12-04T03:52:01.281Z,929.75
2017-12-04T03:52:29.241Z,929.74
2017-12-04T03:52:57.364Z,929.72
2017-12-04T03:53:25.496Z,929.74
2017-12-04T03:53:53.735Z,929.74
2017-12-04T03:54:21.866Z,929.72
2017-12-04T03:54:49.923Z,929.76
2017-12-04T03:55:17.953Z,929.72
2017-12-04T03:55:45.967Z,929.73
2017-12-04T03:56:14.123Z,929.73
2017-12-04T03:56:42.273Z,929.72
2017-12-04T03:57:10.411Z,929.71
2017-12-04T03:57:38.434Z,929.7
2017-12-04T03:58:06.476Z,929.71
2017-12-04T03:58:34.628Z,929.66
2017-12-04T03:59:02.669Z,929.66
2017-12-04T03:59:30.683Z,929.68
2017-12-04T03:59:58.856Z,929.63
2017-12-04T04:00:26.798Z,929.63
2017-12-04T04:00:54.829Z,929.63
2017-12-04T04:01:22.854Z,929.61
2017-12-04T04:01:50.867Z,929.63
2017-12-04T04:02:18.891Z,929.59
2017-12-04T04:02:46.930Z,929.6
2017-12-04T04:03:15.058Z,929.58
2017-12-04T04:03:43.221Z,929.53
2017-12-04T04:04:11.147Z,929.61
2017-12-04T04:04:39.094Z,929.61
2017-12-04T04:05:07.244Z,929.6
2017-12-04T04:05:35.389Z,929.57
2017-12-04T04:06:03.445Z,929.62
2017-12-04T04:06:31.568Z,929.6
2017-12-04T04:06:59.560Z,929.56
2017-12-04T04:07:27.649Z,929.6
2017-12-04T04:07:55.756Z,929.58
2017-12-04T04:08:23.918Z,929.6
2017-12-04T04:08:52.162Z,929.59
2017-12-04T04:09:20.290Z,929.6
2017-12-04T04:09:48.453Z,929.59
2017-12-04T04:10:16.616Z,929.6
2017-12-04T04:10:44.741Z,929.56
2017-12-04T04:11:12.688Z,929.54
2017-12-04T04:11:40.619Z,929.58
2017-12-04T04:12:08.787Z,929.57
2017-12-04T04:12:36.924Z,929.57
2017-12-04T04:13:04.875Z,929.49
2017-12-04T04:13:32.991Z,929.53
2017-12-04T04:14:01.122Z,929.51
2017-12-04T04:14:29.248Z,929.49
2017-12-04T04:14:57.317Z,929.5
2017-12-04T04:15:25.367Z,929.51
2017-12-04T04:15:53.511Z,929.52
2017-12-04T04:16:21.548Z,929.47
2017-12-04T04:16:49.698Z,929.49
2017-12-04T04:17:17.820Z,929.46
2017-12-04T04:17:45.976Z,929.46
2017-12-04T04:18:14.030Z,929.47
2017-12-04T04:18:42.941Z,929.44
2017-12-04T04:19:11.070Z,929.46
2017-12-04T04:19:39.137Z,929.46
2017-12-04T04:20:07.283Z,929.46
2017-12-04T04:20:35.454Z,929.43
2017-12-04T04:21:03.621Z,929.41
2017-12-04T04:21:31.807Z,929.41
2017-12-04T04:21:59.951Z,929.44
2017-12-04T04:22:28.153Z,929.44
2017-12-04T04:22:56.196Z,929.42
2017-12-04T04:23:24.402Z,929.43
2017-12-04T04:23:52.502Z,929.38
2017-12-04T04:24:20.755Z,929.38
2017-12-04T04:24:48.798Z,929.41
2017-12-04T04:25:16.946Z,929.38
2017-12-04T04:25:44.982Z,929.38
2017-12-04T04:26:12.943Z,929.38
2017-12-04T04:26:41.073Z,929.41
2017-12-04T04:27:09.131Z,929.4
2017-12-04T04:27:37.069Z,929.38
2017-12-04T04:28:05.124Z,929.38
2017-12-04T04:28:33.259Z,929.35
2017-12-04T04:29:01.320Z,929.37
2017-12-04T04:29:29.490Z,929.38
2017-12-04T04:29:57.523Z,929.35
2017-12-04T04:30:25.570Z,929.4
2017-12-04T04:30:53.717Z,929.41
2017-12-04T04:31:21.775Z,929.38
2017-12-04T04:31:49.828Z,929.38
2017-12-04T04:32:17.890Z,929.41
2017-12-04T04:32:45.945Z,929.41
2017-12-04T04:33:14.095Z,929.44
2017-12-04T04:33:42.280Z,929.41
2017-12-04T04:34:10.386Z,929.44
2017-12-04T04:34:38.510Z,929.42
2017-12-04T04:35:06.606Z,929.37
2017-12-04T04:35:34.770Z,929.39
2017-12-04T04:36:02.789Z,929.38
2017-12-04T04:36:30.937Z,929.4
2017-12-04T04:36:59.104Z,929.37
2017-12-04T04:37:27.143Z,929.34
2017-12-04T04:37:55.279Z,929.35
2017-12-04T04:38:23.426Z,929.37
2017-12-04T04:38:51.363Z,929.36
2017-12-04T04:39:19.494Z,929.37
2017-12-04T04:39:47.528Z,929.35
2017-12-04T04:40:15.667Z,929.36
2017-12-04T04:40:43.598Z,929.34
2017-12-04T04:41:11.736Z,929.37
2017-12-04T04:41:39.892Z,929.37
2017-12-04T04:42:07.955Z,929.34
2017-12-04T04:42:36.108Z,929.36
2017-12-04T04:43:04.238Z,929.35
2017-12-04T04:43:32.403Z,929.34
2017-12-04T04:44:00.234Z,929.3
2017-12-04T04:44:28.517Z,929.31
2017-12-04T04:44:56.639Z,929.29
2017-12-04T04:45:24.768Z,929.27
2017-12-04T04:45:52.932Z,929.27
2017-12-04T04:46:21.096Z,929.25
2017-12-04T04:46:49.261Z,929.25
2017-12-04T04:47:17.243Z,929.24
2017-12-04T04:47:45.363Z,929.21
2017-12-04T04:48:13.423Z,929.2
2017-12-04T04:48:41.564Z,929.19
2017-12-04T04:49:10.229Z,929.19
2017-12-04T04:49:38.270Z,929.15
2017-12-04T04:50:06.395Z,929.19
2017-12-04T04:50:34.508Z,929.17
2017-12-04T04:51:02.465Z,929.23
2017-12-04T04:51:30.503Z,929.2
2017-12-04T04:51:58.678Z,929.23
2017-12-04T04:52:26.575Z,929.24
2017-12-04T04:52:54.745Z,929.23
2017-12-04T04:53:22.913Z,929.25
2017-12-04T04:53:51.054Z,929.24
2017-12-04T04:54:19.222Z,929.25
2017-12-04T04:54:47.962Z,929.27
2017-12-04T04:55:15.989Z,929.26
2017-12-04T04:55:44.100Z,929.27
2017-12-04T04:56:12.235Z,929.29
2017-12-04T04:56:40.314Z,929.28
2017-12-04T04:57:08.437Z,929.3
2017-12-04T04:57:36.491Z,929.32
2017-12-04T04:58:04.634Z,929.33
2017-12-04T04:58:32.802Z,929.33
2017-12-04T04:59:00.970Z,929.33
2017-12-04T04:59:29.174Z,929.33
2017-12-04T04:59:57.227Z,929.32
2017-12-04T05:00:25.268Z,929.3
2017-12-04T05:00:53.400Z,929.28
2017-12-04T05:01:21.416Z,929.28
2017-12-04T05:01:49.473Z,929.26
2017-12-04T05:02:17.610Z,929.24
2017-12-04T05:02:45.756Z,929.24
2017-12-04T05:03:13.781Z,929.21
2017-12-04T05:03:41.915Z,929.18
2017-12-04T05:04:10.063Z,929.2
2017-12-04T05:04:38.207Z,929.19
2017-12-04T05:05:06.196Z,929.2
2017-12-04T05:05:34.138Z,929.2
2017-12-04T05:06:02.282Z,929.2
2017-12-04T05:06:30.224Z,929.22
2017-12-04T05:06:58.373Z,929.18
2017-12-04T05:07:26.425Z,929.16
2017-12-04T05:07:54.558Z,929.17
2017-12-04T05:08:22.684Z,929.17
2017-12-04T05:08:50.647Z,929.22
2017-12-04T05:09:18.685Z,929.16
2017-12-04T05:09:47.117Z,929.09
2017-12-04T05:10:15.283Z,929.18
2017-12-04T05:10:43.349Z,929.11
2017-12-04T05:11:11.488Z,929.1
2017-12-04T05:11:39.530Z,929.12
2017-12-04T05:12:07.667Z,929.1
2017-12-04T05:12:35.724Z,929.1
2017-12-04T05:13:03.692Z,929.08
2017-12-04T05:13:31.736Z,929.12
2017-12-04T05:13:59.811Z,929.09
2017-12-04T05:14:27.948Z,929.13
2017-12-04T05:14:55.699Z,929.12
2017-12-04T05:15:23.827Z,929.12
2017-12-04T05:15:51.957Z,929.11
2017-12-04T05:16:20.158Z,929.08
2017-12-04T05:16:48.307Z,929.11
2017-12-04T05:17:16.474Z,929.1
2017-12-04T05:17:44.609Z,929.11
2017-12-04T05:18:12.611Z,929.09
2017-12-04T05:18:40.670Z,929.08
2017-12-04T05:19:08.865Z,929.05
2017-12-04T05:19:36.922Z,929.02
2017-12-04T05:20:04.978Z,929.05
2017-12-04T05:20:33.001Z,929.03
2017-12-04T05:21:01.152Z,928.99
2017-12-04T05:21:29.223Z,928.99
2017-12-04T05:21:57.328Z,928.99
2017-12-04T05:22:25.456Z,928.99
2017-12-04T05:22:53.609Z,928.99
2017-12-04T05:23:21.761Z,929.05
2017-12-04T05:23:49.815Z,929.05
2017-12-04T05:24:17.978Z,929.03
2017-12-04T05:24:46.119Z,929.04
2017-12-04T05:25:14.203Z,928.99
2017-12-04T05:25:42.357Z,929.03
2017-12-04T05:26:10.495Z,929.02
2017-12-04T05:26:38.659Z,929.01
2017-12-04T05:27:06.849Z,929.01
2017-12-04T05:27:34.881Z,929.01
2017-12-04T05:28:02.820Z,929.01
2017-12-04T05:28:30.868Z,929
2017-12-04T05:28:58.940Z,929
2017-12-04T05:29:27.074Z,928.96
2017-12-04T05:29:55.208Z,928.94
2017-12-04T05:30:23.293Z,928.95
2017-12-04T05:30:51.347Z,928.89
2017-12-04T05:31:19.496Z,928.95
2017-12-04T05:31:47.617Z,928.92
2017-12-04T05:32:15.747Z,928.91
2017-12-04T05:32:43.802Z,928.88
2017-12-04T05:33:11.967Z,928.87
2017-12-04T05:33:40.121Z,928.87
2017-12-04T05:34:08.223Z,928.86
2017-12-04T05:34:36.345Z,928.85
2017-12-04T05:35:04.484Z,928.83
2017-12-04T05:35:32.628Z,928.78
2017-12-04T05:36:01.559Z,928.84
2017-12-04T05:36:29.670Z,928.79
2017-12-04T05:36:57.706Z,928.83
2017-12-04T05:37:25.898Z,928.85
2017-12-04T05:37:53.927Z,928.88
2017-12-04T05:38:22.069Z,928.88
2017-12-04T05:38:50.063Z,928.83
2017-12-04T05:39:18.017Z,928.83
2017-12-04T05:39:46.152Z,928.84
2017-12-04T05:40:14.484Z,928.84
2017-12-04T05:40:42.645Z,928.81
2017-12-04T05:41:10.790Z,928.8
2017-12-04T05:41:38.913Z,928.79
2017-12-04T05:42:07.056Z,928.81
2017-12-04T05:42:34.998Z,928.79
2017-12-04T05:43:03.047Z,928.8
2017-12-04T05:43:31.067Z,928.74
2017-12-04T05:43:59.094Z,928.74
2017-12-04T05:44:27.125Z,928.76
2017-12-04T05:44:55.174Z,928.72
2017-12-04T05:45:23.345Z,928.79
2017-12-04T05:45:51.502Z,928.76
2017-12-04T05:46:19.608Z,928.7
2017-12-04T05:46:47.723Z,928.72
2017-12-04T05:47:15.770Z,928.72
2017-12-04T05:47:43.844Z,928.72
2017-12-04T05:48:11.990Z,928.77
2017-12-04T05:48:40.156Z,928.76
2017-12-04T05:49:08.215Z,928.73
2017-12-04T05:49:36.249Z,928.74
2017-12-04T05:50:04.405Z,928.77
2017-12-04T05:50:32.898Z,928.74
2017-12-04T05:51:01.028Z,928.79
2017-12-04T05:51:29.182Z,928.8
2017-12-04T05:51:57.368Z,928.78
2017-12-04T05:52:25.422Z,928.75